Flight Track Log - Related Links

Times and Time Zones

All times are in EST time to prevent confusion due to time zone crossing. See the N4612D flight status page for this flight to view local times or setup timezone preferences in your user account.


Time Position Orientation Groundspeed Altitude Reporting Facility
EST Latitude Longitude Course Direction KTS MPH feet Rate Location/Type
Mon 09:24:00 PM 42.5082 -122.8813 340° North  Level Estimated
Mon 09:24:04 PM 42.4889 -122.9139 353° North 76 87 5,200  Level Seattle Center
Mon 09:25:00 PM 42.5305 -122.8826 353° North  Level Estimated
Mon 09:25:05 PM 42.5086 -122.9167 354° North 73 84 5,800  Level Seattle Center
Mon 09:26:00 PM 42.5525 -122.8881 350° North  Level FlightAware Approximate
Mon 09:26:05 PM 42.5264 -122.9169 359° North 66 76 6,200  Level Seattle Center
Mon 09:27:00 PM 42.5745 -122.8936 350° North  Level FlightAware Approximate
Mon 09:27:06 PM 42.5458 -122.9183 357° North 66 76 6,700  Level Seattle Center
Mon 09:28:00 PM 42.5965 -122.8990 350° North  Level FlightAware Approximate
Mon 09:28:07 PM 42.5644 -122.9183 360° North 68 78 7,100  Level Seattle Center
Mon 09:29:08 PM 42.5819 -122.9189 359° North 66 76 7,500 397 Climbing Seattle Center
Mon 09:30:08 PM 42.6014 -122.9197 358° North 68 78 7,900 397 Climbing Seattle Center
Mon 09:31:09 PM 42.6200 -122.9211 357° North 66 76 8,300 295 Climbing Seattle Center
Mon 09:32:10 PM 42.6386 -122.9206 North 68 78 8,500 197 Climbing Seattle Center
Mon 09:33:11 PM 42.6647 -122.9211 359° North 87 100 8,700 99 Climbing Seattle Center
Mon 09:34:11 PM 42.6911 -122.9228 357° North 98 113 8,700 -50 Level Seattle Center
Mon 09:35:12 PM 42.7167 -122.9244 357° North 91 105 8,600 -98 Descending Seattle Center
Mon 09:36:13 PM 42.7422 -122.9286 353° North 91 105 8,500  Descending Seattle Center
Mon 09:37:14 PM 42.7683 -122.9328 353° North 92 106 8,600 49 Climbing Seattle Center
Mon 09:38:15 PM 42.7922 -122.9361 354° North 91 105 8,600  Level Seattle Center
Mon 09:39:15 PM 42.8183 -122.9378 357° North 88 101 8,600 -50 Level Seattle Center
Mon 09:40:16 PM 42.8461 -122.9383 359° North 101 116 8,500 -49 Descending Seattle Center
Mon 09:41:17 PM 42.8700 -122.9400 357° North 89 102 8,500  Level Seattle Center
Mon 09:42:18 PM 42.8953 -122.9450 352° North 89 102 8,500 50 Level Seattle Center
Mon 09:43:18 PM 42.9186 -122.9528 346° North 90 104 8,600 50 Climbing Seattle Center
Mon 09:44:19 PM 42.9431 -122.9544 357° North 92 106 8,600  Level Seattle Center
Mon 09:45:20 PM 42.9697 -122.9544 360° North 91 105 8,600 -49 Level Seattle Center
Mon 09:46:21 PM 42.9931 -122.9636 344° North 90 104 8,500 -50 Descending Seattle Center
Mon 09:47:21 PM 43.0194 -122.9622 North 91 105 8,500  Level Seattle Center
Mon 09:48:22 PM 43.0444 -122.9661 354° North 88 101 8,500 49 Level Seattle Center
Mon 09:49:23 PM 43.0683 -122.9747 345° North 85 98 8,600 98 Climbing Seattle Center
Mon 09:50:24 PM 43.0931 -122.9806 350° North 87 100 8,700  Climbing Seattle Center
Mon 09:51:24 PM 43.1219 -122.9825 357° North 97 112 8,600 -50 Descending Seattle Center
Mon 09:52:25 PM 43.1467 -122.9867 353° North 91 105 8,600  Level Seattle Center
Mon 09:53:26 PM 43.1733 -122.9886 357° North 95 109 8,600  Level Seattle Center
Mon 09:54:27 PM 43.1975 -122.9833 North 96 110 8,600  Level Seattle Center
Mon 09:55:27 PM 43.2236 -122.9761 11° North 95 109 8,600 -50 Level Seattle Center
Mon 09:56:28 PM 43.2492 -122.9769 359° North 93 107 8,500  Descending Seattle Center
Mon 09:57:29 PM 43.2753 -122.9769 360° North 88 101 8,600  Climbing Seattle Center
Mon 09:58:30 PM 43.2989 -122.9856 345° North 84 97 8,500  Descending Seattle Center
Mon 09:59:31 PM 43.3239 -122.9847 North 88 101 8,600 50 Climbing Seattle Center
Mon 10:00:31 PM 43.3489 -122.9694 24° Northeast 93 107 8,600  Level Seattle Center
Mon 10:01:32 PM 43.3758 -122.9636 North 95 109 8,600 -49 Level Seattle Center
Mon 10:02:33 PM 43.4028 -122.9553 13° North 99 114 8,500 -49 Descending Seattle Center
Mon 10:03:34 PM 43.4286 -122.9472 13° North 96 110 8,500  Level Seattle Center
Mon 10:04:34 PM 43.4544 -122.9464 North 89 102 8,500  Level Seattle Center
Mon 10:05:35 PM 43.4789 -122.9386 13° North 90 104 8,500 49 Level Seattle Center
Mon 10:06:36 PM 43.5050 -122.9364 North 92 106 8,600 49 Climbing Seattle Center
Mon 10:07:37 PM 43.5300 -122.9269 15° North 92 106 8,600 -49 Level Seattle Center
Mon 10:08:38 PM 43.5544 -122.9250 North 94 108 8,500  Descending Seattle Center
Mon 10:09:38 PM 43.5772 -122.9267 357° North 84 97 8,600 99 Climbing Seattle Center
Mon 10:10:39 PM 43.6014 -122.9231 North 86 99 8,700  Climbing Seattle Center
Mon 10:11:40 PM 43.6281 -122.9186 North 94 108 8,600 -49 Descending Seattle Center
Mon 10:12:41 PM 43.6539 -122.9175 North 92 106 8,600 -50 Level Seattle Center
Mon 10:13:41 PM 43.6783 -122.9275 344° North 88 101 8,500 -50 Descending Seattle Center
Mon 10:14:42 PM 43.7047 -122.9308 355° North 92 106 8,500 49 Level Seattle Center
Mon 10:15:43 PM 43.7269 -122.9364 350° North 80 92 8,600 49 Climbing Seattle Center
Mon 10:16:44 PM 43.7494 -122.9400 353° North 80 92 8,600 -50 Level Seattle Center
Mon 10:17:44 PM 43.7747 -122.9406 359° North 89 102 8,500 -50 Descending Seattle Center
Mon 10:18:45 PM 43.8006 -122.9433 356° North 90 104 8,500  Level Seattle Center
Mon 10:19:46 PM 43.8228 -122.9472 353° North 85 98 8,500  Level Seattle Center
Mon 10:20:47 PM 43.8456 -122.9506 354° North 80 92 8,500  Level Seattle Center
Mon 10:21:48 PM 43.8697 -122.9536 355° North 85 98 8,500  Level Seattle Center
Mon 10:22:48 PM 43.8958 -122.9544 359° North 91 105 8,500 50 Level Seattle Center
Mon 10:23:49 PM 43.9197 -122.9594 351° North 86 99 8,600 49 Climbing Seattle Center
Mon 10:24:50 PM 43.9436 -122.9614 357° North 84 97 8,600  Level Seattle Center
Mon 10:25:51 PM 43.9683 -122.9644 355° North 88 101 8,600 -50 Level Seattle Center
Mon 10:26:51 PM 43.9956 -122.9586 North 97 112 8,500 -50 Descending Seattle Center
Mon 10:27:52 PM 44.0217 -122.9525 10° North 94 108 8,500 49 Level Seattle Center
Mon 10:28:53 PM 44.0447 -122.9514 North 82 94 8,600 49 Climbing Seattle Center
Mon 10:29:54 PM 44.0678 -122.9542 355° North 82 94 8,600 -49 Level Seattle Center
Mon 10:30:55 PM 44.0953 -122.9528 North 96 110 8,500 -50 Descending Seattle Center
Mon 10:31:55 PM 44.1211 -122.9528 360° North 92 106 8,500 50 Level Seattle Center
Mon 10:32:56 PM 44.1458 -122.9536 359° North 88 101 8,600 49 Climbing Seattle Center
Mon 10:33:57 PM 44.1681 -122.9528 North 85 98 8,600  Level Seattle Center
Mon 10:34:58 PM 44.1922 -122.9503 North 86 99 8,600  Level Seattle Center
Mon 10:35:58 PM 44.2150 -122.9517 357° North 82 94 8,600  Level Seattle Center
Mon 10:36:59 PM 44.2381 -122.9539 356° North 84 97 8,600 -49 Level Seattle Center
Mon 10:38:00 PM 44.2628 -122.9528 North 86 99 8,500 -49 Descending Seattle Center
Mon 10:39:01 PM 44.2856 -122.9533 359° North 82 94 8,500 50 Level Seattle Center
Mon 10:40:01 PM 44.3069 -122.9536 359° North 76 87 8,600 50 Climbing Seattle Center
Mon 10:41:02 PM 44.3278 -122.9558 356° North 78 90 8,600  Level Seattle Center
Mon 10:42:03 PM 44.3497 -122.9522 North 79 91 8,600  Level Seattle Center
Mon 10:43:04 PM 44.3711 -122.9494 North 78 90 8,600  Level Seattle Center
Mon 10:44:05 PM 44.3928 -122.9472 North 78 90 8,600  Level Seattle Center
Mon 10:45:05 PM 44.4150 -122.9472 360° North 80 92 8,600  Level Seattle Center
Mon 10:46:06 PM 44.4353 -122.9550 345° North 77 89 8,600  Level Seattle Center
Mon 10:47:07 PM 44.4561 -122.9578 355° North 75 86 8,600  Level Seattle Center
Mon 10:48:08 PM 44.4764 -122.9589 358° North 74 85 8,600  Level Seattle Center
Mon 10:49:08 PM 44.4986 -122.9594 359° North 79 91 8,600 -50 Level Seattle Center
Mon 10:50:09 PM 44.5206 -122.9622 355° North 80 92 8,500 -49 Descending Seattle Center
Mon 10:51:10 PM 44.5467 -122.9647 356° North 78 90 8,500 49 Level Seattle Center
Mon 10:52:11 PM 44.5672 -122.9647 360° North 75 86 8,600  Climbing Seattle Center
Mon 10:53:12 PM 44.5886 -122.9650 359° North 77 89 8,500 -50 Descending Seattle Center
Mon 10:54:12 PM 44.6061 -122.9656 359° North 75 86 8,500  Level Seattle Center
Mon 10:55:13 PM 44.6269 -122.9664 358° North 75 86 8,500  Level Seattle Center
Mon 10:56:14 PM 44.6489 -122.9667 359° North 77 89 8,500  Level Seattle Center
Mon 10:57:15 PM 44.6728 -122.9664 360° North 73 84 8,500  Level Seattle Center
Mon 10:58:15 PM 44.6928 -122.9672 358° North 72 83 8,500 50 Level Seattle Center
Mon 10:59:16 PM 44.7136 -122.9719 351° North 74 85 8,600  Climbing Seattle Center
Mon 11:00:17 PM 44.7344 -122.9725 359° North 76 87 8,500  Descending Seattle Center
Mon 11:01:18 PM 44.7542 -122.9803 344° North 75 86 8,600 49 Climbing Seattle Center
Mon 11:02:19 PM 44.7717 -122.9881 342° North 69 79 8,600  Level Seattle Center
Mon 11:03:19 PM 44.7903 -122.9906 355° North 67 77 8,600  Level Seattle Center
Mon 11:04:20 PM 44.8106 -122.9908 359° North 71 82 8,600  Level Seattle Center
Mon 11:05:21 PM 44.8308 -122.9911 359° North 73 84 8,600 -49 Level Seattle Center
Mon 11:06:22 PM 44.8517 -122.9942 354° North 74 85 8,500 -50 Descending Seattle Center
Mon 11:07:22 PM 44.8742 -122.9925 North 79 91 8,500  Level Seattle Center
Mon 11:08:23 PM 44.8967 -122.9917 North 80 92 8,500  Level Seattle Center
Mon 11:09:24 PM 44.9181 -122.9892 North 79 91 8,500  Level Seattle Center
Mon 11:10:25 PM 44.9397 -122.9875 North 78 90 8,500  Level Seattle Center
Mon 11:11:25 PM 44.9664 -122.9881 359° North 80 92 8,500  Level Seattle Center
Mon 11:12:26 PM 44.9903 -122.9883 360° North 84 97 8,500 -126 Level Seattle Center
Mon 11:13:00 PM 45.0036 -122.9894 357° North 86 99 8,300 -492 Descending Seattle Center
Mon 11:13:27 PM 45.0153 -122.9861 11° North 88 101 8,000 -716 Descending Seattle Center
Mon 11:14:07 PM 45.0333 -122.9867 359° North 100 115 7,500 -689 Descending Seattle Center
Mon 11:14:28 PM 45.0425 -122.9858 North 92 106 7,300 -764 Descending Seattle Center
Mon 11:15:02 PM 45.0594 -122.9883 354° North 101 116 6,800 -885 Descending Seattle Center
Mon 11:15:29 PM 45.0706 -122.9847 13° North 97 112 6,400 -345 Descending Seattle Center
Mon 11:16:29 PM 45.0986 -122.9831 North 98 113 6,300 -100 Descending Seattle Center
Mon 11:18:00 PM 45.1364 -122.9778 North  Level FlightAware Approximate
Mon 11:25:00 PM 45.3125 -122.9667 North  Level FlightAware Approximate
Mon 11:26:00 PM 45.3375 -122.9667 North  Level FlightAware Approximate
Mon 11:27:00 PM 45.3438 -122.9822 240° Southwest  Level FlightAware Approximate
Mon 11:28:00 PM 45.3314 -123.0132 240° Southwest  Level FlightAware Approximate
Mon 11:29:00 PM 45.3190 -123.0441 240° Southwest  Level FlightAware Approximate
Mon 11:30:00 PM 45.3167 -123.0500 240° Southwest  Level FlightAware Approximate
Mon 11:31:00 PM 45.3237 -123.0543 240° Southwest  Level Estimated

Login

Don't have an account? Register now (free) for customized features, flight alerts, and more!